Time;durP1;ratioP1;P1;durP2;ratioP2;P2;SDS_P1;SDS_P2;PMS_P1;PMS_P2;Temp;Humidity;BMP_temperature;BMP_pressure;BME280_temperature;BME280_humidity;BME280_pressure;Samples;Min_cycle;Max_cycle;Signal;HPM_P1;HPM_P2
2022/04/04 00:02:21;;;;;;;7.30;4.63;;;-2.30;99.90;;;;;;5081715;28;20128;-90
2022/04/04 00:04:48;;;;;;;4.00;3.60;;;-2.30;99.90;;;;;;5072960;28;20157;-89
2022/04/04 00:07:15;;;;;;;5.97;4.00;;;-2.30;99.90;;;;;;5090418;28;20131;-91
2022/04/04 00:09:41;;;;;;;7.05;4.63;;;-2.50;99.90;;;;;;5073019;28;20071;-90
2022/04/04 00:12:09;;;;;;;5.43;3.67;;;-2.50;99.90;;;;;;5073993;28;20083;-91
2022/04/04 00:14:36;;;;;;;6.45;4.03;;;-2.50;99.90;;;;;;5072696;28;20538;-91
2022/04/04 00:17:03;;;;;;;4.45;3.80;;;-2.50;99.90;;;;;;5073697;28;20044;-91
2022/04/04 00:19:30;;;;;;;4.00;3.53;;;-2.50;99.90;;;;;;5073476;28;20048;-91
2022/04/04 00:21:57;;;;;;;7.35;4.30;;;-2.60;99.90;;;;;;5073728;28;20048;-91
2022/04/04 00:24:24;;;;;;;5.45;4.22;;;-2.50;99.90;;;;;;5072434;28;20068;-91
2022/04/04 00:26:51;;;;;;;5.10;4.57;;;-2.50;99.90;;;;;;5072418;28;20131;-91
2022/04/04 00:29:18;;;;;;;4.82;4.35;;;-2.60;99.90;;;;;;5072315;28;20143;-91
2022/04/04 00:31:45;;;;;;;5.15;4.65;;;-2.70;99.90;;;;;;5072198;28;20056;-91
2022/04/04 00:34:12;;;;;;;8.18;4.43;;;-2.60;99.90;;;;;;5073137;28;20045;-91
2022/04/04 00:36:40;;;;;;;4.93;4.22;;;-2.60;99.90;;;;;;5072131;28;20559;-91
2022/04/04 00:39:07;;;;;;;9.48;4.28;;;-2.60;99.90;;;;;;5071992;28;20484;-91
2022/04/04 00:41:34;;;;;;;5.35;3.90;;;-2.70;99.90;;;;;;5071975;28;20207;-92
2022/04/04 00:44:01;;;;;;;6.57;3.70;;;-2.80;99.90;;;;;;5072029;28;20496;-92
2022/04/04 00:46:27;;;;;;;5.40;4.63;;;-2.90;99.90;;;;;;5071769;28;20132;-91
2022/04/04 00:48:55;;;;;;;5.32;4.30;;;-2.80;99.90;;;;;;5072359;28;20098;-92
2022/04/04 00:51:21;;;;;;;6.38;4.70;;;-2.70;99.90;;;;;;5072378;28;20131;-92
2022/04/04 00:53:49;;;;;;;7.28;4.28;;;-2.70;99.90;;;;;;5071947;28;20076;-92
2022/04/04 00:56:16;;;;;;;8.55;5.53;;;-2.80;99.90;;;;;;5071763;28;20551;-92
2022/04/04 00:58:43;;;;;;;8.80;5.30;;;-2.80;99.90;;;;;;5072126;28;20090;-92
2022/04/04 01:01:10;;;;;;;5.70;4.93;;;-2.90;99.90;;;;;;5072258;28;20531;-93
2022/04/04 01:03:37;;;;;;;5.35;4.40;;;-2.80;99.90;;;;;;5071884;28;20053;-93
2022/04/04 01:06:04;;;;;;;5.85;4.30;;;-2.90;99.90;;;;;;5072470;28;20052;-93
2022/04/04 01:08:31;;;;;;;5.05;4.32;;;-3.00;99.90;;;;;;5071751;28;20091;-93
2022/04/04 01:10:58;;;;;;;6.80;4.70;;;-3.10;99.90;;;;;;5088615;28;20076;-93
2022/04/04 01:13:24;;;;;;;6.78;4.50;;;-3.00;99.90;;;;;;5072618;28;20518;-93
2022/04/04 01:15:51;;;;;;;6.45;4.82;;;-3.10;99.90;;;;;;5080589;28;20079;-93
2022/04/04 01:18:18;;;;;;;8.40;5.15;;;-3.10;99.90;;;;;;5081199;28;20049;-94
2022/04/04 01:20:45;;;;;;;5.43;4.38;;;-3.20;99.90;;;;;;5075597;28;20112;-94
2022/04/04 01:23:13;;;;;;;4.95;4.55;;;-3.20;99.90;;;;;;5076749;28;20059;-94
2022/04/04 01:25:40;;;;;;;7.75;4.90;;;-3.20;99.90;;;;;;5075090;28;20079;-94
2022/04/04 01:28:07;;;;;;;5.30;4.40;;;-3.30;99.90;;;;;;5076564;28;20091;-93
2022/04/04 01:30:34;;;;;;;5.20;4.22;;;-3.30;99.90;;;;;;5075580;28;20048;-95
2022/04/04 01:33:01;;;;;;;6.57;4.72;;;-3.40;99.90;;;;;;5076618;28;20088;-95
2022/04/04 01:35:28;;;;;;;4.40;3.85;;;-3.30;99.90;;;;;;5076131;28;20041;-94
2022/04/04 01:37:55;;;;;;;7.32;4.57;;;-3.40;99.90;;;;;;5075520;28;20045;-94
2022/04/04 01:40:22;;;;;;;9.55;4.05;;;-3.40;99.90;;;;;;5075260;28;20197;-95
2022/04/04 01:42:54;;;;;;;7.22;3.88;;;-3.40;99.90;;;;;;5075096;28;20098;-95
2022/04/04 01:46:23;;;;;;;8.75;4.50;;;-3.50;99.90;;;;;;5075281;28;20079;-94
2022/04/04 01:48:10;;;;;;;5.72;4.70;;;-3.50;99.90;;;;;;5076100;28;20048;-95
2022/04/04 01:50:37;;;;;;;6.55;4.70;;;-3.50;99.90;;;;;;5075297;28;20056;-95
2022/04/04 01:55:51;;;;;;;5.35;4.85;;;-3.50;99.90;;;;;;5076496;28;20532;-95
2022/04/04 01:58:18;;;;;;;9.80;5.40;;;-3.50;99.90;;;;;;5075276;28;20135;-94
2022/04/04 02:00:45;;;;;;;8.73;4.63;;;-3.50;99.90;;;;;;5075228;28;20113;-95
2022/04/04 02:03:12;;;;;;;8.18;4.80;;;-3.40;99.90;;;;;;5075232;28;20413;-95
2022/04/04 02:05:39;;;;;;;6.20;4.57;;;-3.40;99.90;;;;;;5074810;28;20060;-95
2022/04/04 02:08:06;;;;;;;10.50;5.32;;;-3.40;99.90;;;;;;5091613;28;20505;-96
2022/04/04 02:10:33;;;;;;;6.80;6.00;;;-3.40;99.90;;;;;;5074896;28;20056;-96
2022/04/04 02:13:00;;;;;;;6.93;5.40;;;-3.30;99.90;;;;;;5074842;28;20052;-96
2022/04/04 02:15:27;;;;;;;7.00;5.38;;;-3.40;99.90;;;;;;5074714;28;20079;-96
2022/04/04 02:17:54;;;;;;;9.02;5.25;;;-3.30;99.90;;;;;;5075082;28;20075;-94
2022/04/04 02:20:21;;;;;;;5.72;5.10;;;-3.30;99.90;;;;;;5074913;28;20515;-96
2022/04/04 02:22:48;;;;;;;6.50;4.60;;;-3.30;99.90;;;;;;5074699;28;20136;-95
2022/04/04 02:25:15;;;;;;;5.43;4.63;;;-3.30;99.90;;;;;;5074123;28;20052;-96
2022/04/04 02:27:42;;;;;;;7.65;5.22;;;-3.40;99.90;;;;;;5074601;28;20059;-96
2022/04/04 02:30:10;;;;;;;6.78;4.68;;;-3.40;99.90;;;;;;5076113;28;20056;-96
2022/04/04 02:32:37;;;;;;;7.07;4.88;;;-3.50;99.90;;;;;;5090404;28;20052;-96
2022/04/04 02:35:04;;;;;;;6.18;4.85;;;-3.50;99.90;;;;;;5074576;28;20053;-96
2022/04/04 02:37:31;;;;;;;8.40;5.25;;;-3.60;99.90;;;;;;5074822;28;20117;-96
2022/04/04 02:39:58;;;;;;;5.72;4.63;;;-3.60;99.90;;;;;;5074440;28;20048;-96
2022/04/04 02:42:28;;;;;;;11.60;5.95;;;-3.60;99.90;;;;;;5074784;28;20055;-96
2022/04/04 02:44:55;;;;;;;8.18;5.40;;;-3.50;99.90;;;;;;5074433;28;20072;-96
2022/04/04 02:47:22;;;;;;;10.15;5.25;;;-3.40;99.90;;;;;;5074616;28;20556;-96
2022/04/04 02:49:49;;;;;;;7.10;5.93;;;-3.40;99.90;;;;;;5075059;28;20048;-96
2022/04/04 02:52:16;;;;;;;7.00;6.07;;;-3.30;99.90;;;;;;5074759;28;20072;-96
2022/04/04 02:54:43;;;;;;;10.25;6.10;;;-3.20;99.90;;;;;;5074205;28;20139;-95
2022/04/04 02:57:10;;;;;;;18.02;7.40;;;-3.20;99.90;;;;;;5074132;28;20076;-96
2022/04/04 02:59:37;;;;;;;7.20;5.53;;;-3.10;99.90;;;;;;5073831;28;20135;-96
2022/04/04 03:02:04;;;;;;;7.88;4.68;;;-3.20;99.90;;;;;;5074354;28;20556;-96
2022/04/04 03:04:31;;;;;;;6.90;5.25;;;-3.20;99.90;;;;;;5074139;28;20110;-96
2022/04/04 03:07:00;;;;;;;8.27;5.45;;;-3.20;99.90;;;;;;5090891;28;20484;-96
2022/04/04 03:09:27;;;;;;;7.65;5.28;;;-3.30;99.90;;;;;;5074510;28;20048;-96
2022/04/04 03:11:54;;;;;;;11.93;5.45;;;-3.40;99.90;;;;;;5074514;28;20082;-96
2022/04/04 03:14:21;;;;;;;13.10;5.78;;;-3.40;99.90;;;;;;5074316;28;20078;-96
2022/04/04 03:16:48;;;;;;;10.55;5.72;;;-3.50;99.90;;;;;;5075579;28;20530;-96
2022/04/04 03:19:15;;;;;;;12.93;5.63;;;-3.50;99.90;;;;;;5075759;28;20078;-96
2022/04/04 03:21:44;;;;;;;8.55;5.35;;;-3.50;99.90;;;;;;5093772;28;20041;-96
2022/04/04 03:24:11;;;;;;;12.98;6.07;;;-3.50;99.90;;;;;;5076134;28;20056;-96
2022/04/04 03:26:39;;;;;;;12.45;5.80;;;-3.50;99.90;;;;;;5076605;28;20087;-96
2022/04/04 03:29:06;;;;;;;12.45;5.50;;;-3.60;99.90;;;;;;5076233;28;20053;-96
2022/04/04 03:31:33;;;;;;;13.23;7.05;;;-3.50;99.90;;;;;;5075244;28;20041;-96
2022/04/04 03:34:00;;;;;;;18.38;6.95;;;-3.60;99.90;;;;;;5075828;28;20052;-96
2022/04/04 03:36:27;;;;;;;16.08;6.03;;;-3.60;99.90;;;;;;5077810;28;20060;-96
2022/04/04 03:38:54;;;;;;;24.02;7.30;;;-3.50;99.90;;;;;;5074982;28;20067;-96
2022/04/04 03:41:21;;;;;;;55.70;11.57;;;-3.50;99.90;;;;;;5074675;28;20097;-96
2022/04/04 03:43:48;;;;;;;42.47;12.18;;;-3.40;99.90;;;;;;5075028;28;20569;-96
2022/04/04 03:46:15;;;;;;;18.23;8.10;;;-3.40;99.90;;;;;;5083974;28;20063;-94
2022/04/04 03:48:42;;;;;;;23.77;8.48;;;-3.30;99.90;;;;;;5082630;28;20126;-96
2022/04/04 03:51:09;;;;;;;16.02;6.93;;;-3.30;99.90;;;;;;5073994;28;20382;-96
2022/04/04 03:53:36;;;;;;;20.98;7.47;;;-3.30;99.90;;;;;;5073661;28;20063;-96
2022/04/04 03:56:04;;;;;;;11.75;6.93;;;-3.40;99.90;;;;;;5073662;28;20044;-96
2022/04/04 03:58:31;;;;;;;19.10;7.82;;;-3.40;99.90;;;;;;5073346;28;20045;-96
2022/04/04 04:00:58;;;;;;;42.92;8.40;;;-3.40;99.90;;;;;;5073468;28;20048;-96
2022/04/04 04:03:25;;;;;;;14.93;7.50;;;-3.40;99.90;;;;;;5073224;28;20049;-96
2022/04/04 04:06:11;;;;;;;18.33;7.28;;;-3.40;99.90;;;;;;5073144;28;20061;-96
2022/04/04 04:08:40;;;;;;;54.10;10.35;;;-3.30;99.90;;;;;;5074630;28;20070;-96
2022/04/04 04:11:07;;;;;;;20.98;8.38;;;-3.30;99.90;;;;;;5073232;28;20052;-96
2022/04/04 04:13:34;;;;;;;18.23;7.75;;;-3.20;99.90;;;;;;5073681;28;20484;-96
2022/04/04 04:16:02;;;;;;;13.30;8.82;;;-3.20;99.90;;;;;;5074438;28;20052;-96
2022/04/04 04:18:29;;;;;;;19.95;10.35;;;-3.00;99.90;;;;;;5073549;28;20049;-96
2022/04/04 04:20:57;;;;;;;28.75;10.35;;;-3.00;99.90;;;;;;5073518;28;20071;-96
2022/04/04 04:23:23;;;;;;;27.73;9.20;;;-3.10;99.90;;;;;;5073137;28;20488;-96
2022/04/04 04:25:50;;;;;;;21.38;8.45;;;-3.20;99.90;;;;;;5073047;28;20055;-96
2022/04/04 04:28:18;;;;;;;11.98;8.05;;;-3.20;99.90;;;;;;5073089;28;20123;-96
2022/04/04 04:30:45;;;;;;;20.88;8.02;;;-3.20;99.90;;;;;;5073202;28;20070;-96
2022/04/04 04:33:13;;;;;;;13.95;7.53;;;-3.20;99.90;;;;;;5072487;28;20139;-96
2022/04/04 04:35:40;;;;;;;9.90;6.68;;;-3.20;99.90;;;;;;5072363;28;20480;-96
2022/04/04 04:38:07;;;;;;;14.57;7.10;;;-3.20;99.90;;;;;;5089399;28;20139;-96
2022/04/04 04:40:35;;;;;;;19.17;8.15;;;-3.30;99.90;;;;;;5072676;28;20143;-96
2022/04/04 04:43:03;;;;;;;13.48;6.53;;;-3.30;99.90;;;;;;5073510;28;20501;-96
2022/04/04 04:45:30;;;;;;;14.02;6.47;;;-3.30;99.90;;;;;;5074130;28;20045;-95
2022/04/04 04:47:57;;;;;;;21.08;7.22;;;-3.30;99.90;;;;;;5075127;28;20044;-95
2022/04/04 04:50:26;;;;;;;18.60;8.70;;;-3.40;99.90;;;;;;5074338;28;20048;-96
2022/04/04 04:52:54;;;;;;;12.27;6.88;;;-3.30;99.90;;;;;;5078719;28;20052;-96
2022/04/04 04:55:23;;;;;;;23.73;8.00;;;-3.20;99.90;;;;;;5078251;28;20075;-96
2022/04/04 04:57:52;;;;;;;10.93;7.07;;;-3.20;99.90;;;;;;5080004;28;20109;-96
2022/04/04 05:00:26;;;;;;;14.00;7.45;;;-3.30;99.90;;;;;;5080236;28;20059;-96
2022/04/04 05:05:40;;;;;;;19.98;9.13;;;-3.30;99.90;;;;;;5082013;28;20084;-96
2022/04/04 05:08:08;;;;;;;18.85;9.27;;;-3.30;99.90;;;;;;5082728;28;20201;-96
2022/04/04 05:10:35;;;;;;;30.20;13.50;;;-3.30;99.90;;;;;;5083289;28;20117;-96
2022/04/04 05:13:02;;;;;;;28.27;13.90;;;-3.20;99.90;;;;;;5081281;28;20106;-96
2022/04/04 05:15:29;;;;;;;21.38;10.70;;;-2.90;99.90;;;;;;5081855;28;20056;-95
2022/04/04 05:17:57;;;;;;;21.90;8.75;;;-2.80;99.90;;;;;;5079262;28;20044;-96
2022/04/04 05:20:24;;;;;;;21.42;7.53;;;-2.70;99.90;;;;;;5079698;28;20049;-96
2022/04/04 05:22:51;;;;;;;12.25;8.80;;;-2.60;99.90;;;;;;5077957;28;20061;-96
2022/04/04 05:25:18;;;;;;;7.95;6.60;;;-2.50;99.90;;;;;;5077776;28;20048;-96
2022/04/04 05:27:45;;;;;;;12.93;6.70;;;-2.40;99.90;;;;;;5077612;28;20488;-96
2022/04/04 05:30:12;;;;;;;10.00;7.05;;;-2.20;99.90;;;;;;5077755;28;20500;-96
2022/04/04 05:32:40;;;;;;;7.63;5.75;;;-2.10;99.90;;;;;;5094027;28;20056;-96
2022/04/04 05:35:07;;;;;;;13.88;6.40;;;-1.90;99.90;;;;;;5076537;28;20044;-96
2022/04/04 05:37:35;;;;;;;9.18;6.20;;;-1.80;99.90;;;;;;5077180;28;20076;-96
2022/04/04 05:40:03;;;;;;;11.80;6.93;;;-1.70;99.90;;;;;;5075910;28;20117;-95
2022/04/04 05:42:31;;;;;;;10.48;6.70;;;-1.60;99.90;;;;;;5076124;28;20044;-96
2022/04/04 05:44:58;;;;;;;13.45;6.57;;;-1.50;99.90;;;;;;5074171;28;20049;-95
2022/04/04 05:47:26;;;;;;;10.05;6.47;;;-1.30;99.90;;;;;;5074338;28;20559;-95
2022/04/04 05:49:53;;;;;;;8.80;6.07;;;-0.80;99.90;;;;;;5074192;28;20049;-94
2022/04/04 05:52:23;;;;;;;8.05;6.22;;;-0.10;99.90;;;;;;5074591;28;20080;-93
2022/04/04 05:54:59;;;;;;;7.07;5.95;;;0.60;99.90;;;;;;5075082;28;20055;-93
2022/04/04 05:57:28;;;;;;;8.32;5.35;;;1.40;99.90;;;;;;5073812;28;20055;-92
2022/04/04 05:59:55;;;;;;;6.78;5.90;;;2.30;99.90;;;;;;5075397;28;20055;-92
2022/04/04 06:02:23;;;;;;;5.90;5.15;;;2.60;99.90;;;;;;5074300;28;20136;-91
2022/04/04 06:04:50;;;;;;;5.63;4.88;;;2.90;99.90;;;;;;5074596;28;20114;-91
2022/04/04 06:07:18;;;;;;;7.53;5.22;;;3.30;99.90;;;;;;5075764;28;20565;-91
2022/04/04 06:09:45;;;;;;;7.00;5.20;;;3.80;99.90;;;;;;5075988;28;20131;-91
2022/04/04 06:12:12;;;;;;;6.05;4.55;;;4.20;99.90;;;;;;5074675;28;20079;-91
2022/04/04 06:14:39;;;;;;;6.07;5.28;;;4.80;99.90;;;;;;5075586;28;20053;-90
2022/04/04 06:17:06;;;;;;;5.68;5.18;;;5.20;98.90;;;;;;5078298;28;20147;-89
2022/04/04 06:19:34;;;;;;;7.40;5.68;;;5.10;96.10;;;;;;5074539;28;20103;-90
2022/04/04 06:22:03;;;;;;;6.13;4.88;;;5.50;95.90;;;;;;5075590;28;20143;-89
2022/04/04 06:24:31;;;;;;;5.47;4.97;;;5.80;95.40;;;;;;5074650;28;20076;-88
2022/04/04 06:26:58;;;;;;;5.75;5.25;;;5.90;93.70;;;;;;5074410;28;20077;-89
2022/04/04 06:29:25;;;;;;;6.05;5.20;;;6.00;92.90;;;;;;5074322;28;20076;-89
2022/04/04 06:31:52;;;;;;;7.97;6.15;;;5.60;93.20;;;;;;5074313;28;20139;-88
2022/04/04 06:34:20;;;;;;;11.95;5.65;;;5.60;93.30;;;;;;5073351;28;20569;-89
2022/04/04 06:36:47;;;;;;;8.25;5.97;;;5.60;92.90;;;;;;5074319;28;20143;-89
2022/04/04 06:39:14;;;;;;;7.65;5.88;;;5.40;92.80;;;;;;5074801;28;20477;-88
2022/04/04 06:41:41;;;;;;;9.65;5.82;;;5.80;92.60;;;;;;5074088;28;20571;-88
2022/04/04 06:44:08;;;;;;;14.48;5.60;;;5.60;92.50;;;;;;5075130;28;20060;-88
2022/04/04 06:46:37;;;;;;;7.57;5.50;;;5.50;92.60;;;;;;5073927;28;20139;-88
2022/04/04 06:49:05;;;;;;;9.23;6.20;;;5.20;92.60;;;;;;5107489;28;20052;-90
2022/04/04 06:51:33;;;;;;;8.23;5.57;;;4.90;93.80;;;;;;5073925;28;20611;-89
2022/04/04 06:54:01;;;;;;;12.35;6.25;;;4.70;94.00;;;;;;5074813;28;20576;-89
2022/04/04 06:56:29;;;;;;;9.52;6.55;;;4.40;94.80;;;;;;5074791;28;20140;-89
2022/04/04 06:58:56;;;;;;;20.25;6.55;;;4.70;95.50;;;;;;5073729;28;20072;-89
2022/04/04 07:01:23;;;;;;;10.85;6.40;;;4.40;95.60;;;;;;5107271;28;20612;-87
2022/04/04 07:03:50;;;;;;;8.68;6.60;;;4.30;96.00;;;;;;5074541;28;20075;-89
2022/04/04 07:06:17;;;;;;;6.85;6.10;;;4.20;96.40;;;;;;5073404;28;20060;-89
2022/04/04 07:08:44;;;;;;;8.23;6.35;;;4.20;96.70;;;;;;5107051;28;20076;-90
2022/04/04 07:11:10;;;;;;;11.43;6.93;;;4.50;97.00;;;;;;5073532;28;20495;-88
2022/04/04 07:13:37;;;;;;;8.25;6.28;;;4.60;95.80;;;;;;5073917;28;20139;-90
2022/04/04 07:16:04;;;;;;;13.57;6.97;;;4.70;96.10;;;;;;5073812;28;20044;-89
2022/04/04 07:18:38;;;;;;;9.73;6.72;;;4.90;96.20;;;;;;5073585;28;20052;-91
2022/04/04 07:21:05;;;;;;;9.88;7.10;;;5.10;95.80;;;;;;5073003;28;20048;-89
2022/04/04 07:23:31;;;;;;;10.40;6.70;;;5.10;95.50;;;;;;5072936;28;20083;-90
2022/04/04 07:25:58;;;;;;;13.38;7.40;;;5.50;95.60;;;;;;5074148;28;20049;-88
2022/04/04 07:28:25;;;;;;;9.05;7.00;;;5.60;95.20;;;;;;5105897;28;20048;-89
2022/04/04 07:30:53;;;;;;;14.73;7.43;;;5.80;95.20;;;;;;5074399;28;20052;-88
2022/04/04 07:33:21;;;;;;;7.70;7.00;;;5.70;94.60;;;;;;5107444;28;20044;-89
2022/04/04 07:35:49;;;;;;;14.10;7.45;;;5.70;94.50;;;;;;5073260;28;20075;-89
2022/04/04 07:38:16;;;;;;;7.40;6.70;;;5.80;95.30;;;;;;5106444;28;20135;-89
2022/04/04 07:40:43;;;;;;;10.23;6.70;;;5.70;94.70;;;;;;5071598;28;20528;-90
2022/04/04 07:43:10;;;;;;;15.60;7.65;;;5.70;94.80;;;;;;5073578;28;20080;-88
2022/04/04 07:45:37;;;;;;;8.52;6.78;;;6.00;95.10;;;;;;5072986;28;20113;-88
2022/04/04 07:48:10;;;;;;;10.23;6.65;;;6.10;93.90;;;;;;5072859;28;20067;-89
2022/04/04 07:50:37;;;;;;;10.93;6.97;;;6.10;94.00;;;;;;5072666;28;20401;-89
2022/04/04 07:53:04;;;;;;;8.90;6.50;;;6.10;93.60;;;;;;5073794;28;20044;-89
2022/04/04 07:55:31;;;;;;;14.95;7.00;;;6.10;92.90;;;;;;5072321;28;20084;-91
2022/04/04 07:57:57;;;;;;;9.98;6.57;;;6.10;93.10;;;;;;5073914;28;20536;-89
2022/04/04 08:00:31;;;;;;;10.82;6.72;;;5.90;92.90;;;;;;5072357;28;20052;-90
2022/04/04 08:02:58;;;;;;;8.10;5.60;;;6.00;92.70;;;;;;5106196;28;20139;-91
2022/04/04 08:05:26;;;;;;;8.73;6.03;;;5.90;92.50;;;;;;5072348;28;20068;-89
2022/04/04 08:07:53;;;;;;;8.02;6.68;;;5.80;93.10;;;;;;5073561;28;20135;-90
2022/04/04 08:10:24;;;;;;;14.75;6.22;;;5.90;92.50;;;;;;5072648;28;20063;-88
2022/04/04 08:12:52;;;;;;;7.10;6.40;;;5.70;92.30;;;;;;5072538;28;20045;-88
2022/04/04 08:15:19;;;;;;;11.15;6.90;;;5.60;93.00;;;;;;5071995;28;20079;-90
2022/04/04 08:17:46;;;;;;;8.63;6.05;;;5.40;93.10;;;;;;5073172;28;20123;-90
2022/04/04 08:20:13;;;;;;;8.13;6.95;;;5.50;93.20;;;;;;5072984;28;20049;-88
2022/04/04 08:22:43;;;;;;;9.65;6.78;;;5.60;93.30;;;;;;5073349;28;20507;-88
2022/04/04 08:25:10;;;;;;;11.60;6.65;;;5.70;92.80;;;;;;5071751;28;20415;-88
2022/04/04 08:27:38;;;;;;;12.93;6.57;;;5.90;92.70;;;;;;5072258;28;20084;-88
2022/04/04 08:30:06;;;;;;;10.50;6.05;;;5.90;92.20;;;;;;5072198;28;20041;-87
2022/04/04 08:32:37;;;;;;;7.15;6.45;;;6.20;92.30;;;;;;5105611;28;20135;-89
2022/04/04 08:35:06;;;;;;;10.15;6.68;;;6.30;91.50;;;;;;5072044;28;20072;-89
2022/04/04 08:37:38;;;;;;;11.63;7.20;;;6.20;91.10;;;;;;5071976;28;20078;-90
2022/04/04 08:40:07;;;;;;;11.90;7.00;;;6.00;91.10;;;;;;5072227;28;20076;-90
2022/04/04 08:42:35;;;;;;;10.30;7.15;;;5.80;92.20;;;;;;5073408;28;20076;-89
2022/04/04 08:45:03;;;;;;;7.25;6.20;;;5.90;92.20;;;;;;5072267;28;20091;-89
2022/04/04 08:47:32;;;;;;;9.02;6.75;;;5.90;92.10;;;;;;5073105;28;20051;-90
2022/04/04 08:50:00;;;;;;;8.15;7.00;;;5.70;92.50;;;;;;5072235;28;20084;-91
2022/04/04 08:52:27;;;;;;;12.90;7.28;;;5.60;92.40;;;;;;5072075;28;20577;-91
2022/04/04 08:54:54;;;;;;;7.90;7.10;;;5.90;92.50;;;;;;5071820;28;20049;-88
2022/04/04 08:57:21;;;;;;;8.98;6.75;;;6.80;91.70;;;;;;5072029;28;20072;-91
2022/04/04 08:59:47;;;;;;;10.95;6.80;;;7.70;90.00;;;;;;5072877;28;20056;-89
2022/04/04 09:02:15;;;;;;;24.48;7.32;;;8.30;88.30;;;;;;5072006;28;20110;-89
2022/04/04 09:04:42;;;;;;;21.95;6.88;;;9.00;84.50;;;;;;5071958;28;20557;-89
2022/04/04 09:07:12;;;;;;;18.27;6.40;;;8.70;83.30;;;;;;5071984;28;20127;-88
2022/04/04 09:09:44;;;;;;;9.93;6.50;;;8.30;84.30;;;;;;5071955;28;20391;-90
2022/04/04 09:12:19;;;;;;;9.70;6.75;;;8.30;84.60;;;;;;5071585;28;20062;-90
2022/04/04 09:14:57;;;;;;;9.05;6.55;;;9.10;86.20;;;;;;5071846;28;20494;-88
2022/04/04 09:17:32;;;;;;;17.73;7.10;;;9.40;80.80;;;;;;5071513;28;20052;-92
2022/04/04 09:20:03;;;;;;;8.88;6.55;;;9.60;81.00;;;;;;5071965;28;20045;-90
2022/04/04 09:22:30;;;;;;;12.30;6.88;;;9.10;79.60;;;;;;5071736;28;20159;-90
2022/04/04 09:24:59;;;;;;;9.95;6.63;;;8.70;81.00;;;;;;5071742;28;20075;-90
2022/04/04 09:27:31;;;;;;;9.23;6.65;;;8.90;82.00;;;;;;5072886;28;20486;-90
2022/04/04 09:30:01;;;;;;;13.20;7.00;;;9.00;79.80;;;;;;5071740;28;20103;-92
2022/04/04 09:32:45;;;;;;;60.80;10.55;;;8.90;80.60;;;;;;5072847;28;20389;-90
2022/04/04 09:35:18;;;;;;;13.95;7.13;;;9.00;80.80;;;;;;5071999;28;20131;-93
2022/04/04 09:37:48;;;;;;;10.18;6.65;;;8.90;79.80;;;;;;5106909;28;20055;-91
2022/04/04 09:40:16;;;;;;;10.13;6.90;;;8.90;78.20;;;;;;5110027;28;20131;-91
2022/04/04 09:42:57;;;;;;;19.75;7.63;;;8.50;79.30;;;;;;5077198;28;20044;-91
2022/04/04 09:45:28;;;;;;;14.93;6.78;;;7.80;80.70;;;;;;5075733;28;20475;-91
2022/04/04 09:48:02;;;;;;;13.88;6.50;;;7.80;82.90;;;;;;5075927;28;20054;-90
2022/04/04 09:50:47;;;;;;;9.77;6.70;;;8.30;81.10;;;;;;5076266;28;20106;-91
2022/04/04 09:53:22;;;;;;;6.93;6.22;;;8.40;79.50;;;;;;5075493;28;20049;-89
2022/04/04 09:55:55;;;;;;;11.73;6.43;;;8.80;80.80;;;;;;5075590;28;20440;-90
2022/04/04 09:58:24;;;;;;;7.17;6.43;;;8.40;80.10;;;;;;5075487;28;20052;-92
2022/04/04 10:00:52;;;;;;;7.20;6.50;;;8.00;81.30;;;;;;5076240;28;20055;-90
2022/04/04 10:03:20;;;;;;;17.90;6.95;;;7.90;81.40;;;;;;5077376;28;20041;-90
2022/04/04 10:05:55;;;;;;;7.28;5.75;;;7.60;83.00;;;;;;5074820;28;20056;-93
2022/04/04 10:08:25;;;;;;;6.88;5.35;;;7.70;83.00;;;;;;5074988;28;20084;-90
2022/04/04 10:10:54;;;;;;;9.30;5.78;;;8.20;81.30;;;;;;5075971;28;20044;-90
2022/04/04 10:13:23;;;;;;;10.88;5.50;;;9.10;80.20;;;;;;5075647;28;20075;-92
2022/04/04 10:15:52;;;;;;;16.88;5.65;;;9.60;78.10;;;;;;5074853;28;20052;-93
2022/04/04 10:18:20;;;;;;;9.82;5.63;;;9.60;76.30;;;;;;5074917;28;20055;-91
2022/04/04 10:20:55;;;;;;;5.45;4.95;;;9.40;75.80;;;;;;5074858;28;20409;-91
2022/04/04 10:23:23;;;;;;;6.57;4.95;;;9.10;76.90;;;;;;5074790;28;20139;-89
2022/04/04 10:25:51;;;;;;;16.38;5.18;;;9.20;76.50;;;;;;5075795;28;20140;-89
2022/04/04 10:28:27;;;;;;;12.32;5.28;;;9.20;76.60;;;;;;5108328;28;20079;-91
2022/04/04 10:30:58;;;;;;;7.13;4.60;;;9.50;75.70;;;;;;5074742;28;20078;-91
2022/04/04 10:33:31;;;;;;;4.72;4.35;;;10.10;74.70;;;;;;5074561;28;20052;-89
2022/04/04 10:36:04;;;;;;;7.72;4.53;;;10.40;73.00;;;;;;5074437;28;20057;-89
2022/04/04 10:38:52;;;;;;;15.45;5.13;;;10.10;72.00;;;;;;5074824;28;20060;-93
2022/04/04 10:41:27;;;;;;;6.80;4.82;;;9.70;71.90;;;;;;5074569;28;20492;-89
2022/04/04 10:43:55;;;;;;;10.65;4.82;;;9.40;73.50;;;;;;5108432;28;20076;-90
2022/04/04 10:46:24;;;;;;;8.13;4.72;;;10.10;74.50;;;;;;5074266;28;20054;-87
2022/04/04 10:49:06;;;;;;;12.23;4.57;;;10.10;72.10;;;;;;5074049;28;20060;-89
2022/04/04 10:51:34;;;;;;;25.77;5.88;;;10.50;71.70;;;;;;5074463;28;20052;-89
2022/04/04 10:54:10;;;;;;;18.83;5.10;;;10.50;70.00;;;;;;5074636;28;20094;-91
2022/04/04 10:56:41;;;;;;;5.40;4.90;;;10.00;69.90;;;;;;5074047;28;20048;-92
2022/04/04 10:59:29;;;;;;;11.07;5.28;;;9.80;72.10;;;;;;5074606;28;20151;-92
2022/04/04 11:02:02;;;;;;;50.20;7.28;;;9.30;72.80;;;;;;5072377;28;20057;-88
2022/04/04 11:04:30;;;;;;;7.90;4.55;;;9.80;73.70;;;;;;5073859;28;20052;-90
2022/04/04 11:09:52;;;;;;;19.77;5.28;;;12.20;69.80;;;;;;5074905;28;20076;-91
2022/04/04 11:12:22;;;;;;;4.35;4.05;;;12.90;66.90;;;;;;5074608;28;20048;-90
2022/04/04 11:15:04;;;;;;;15.35;4.85;;;12.70;63.80;;;;;;5073327;28;20083;-88
2022/04/04 11:17:36;;;;;;;38.75;6.43;;;11.50;63.40;;;;;;5076210;28;20489;-91
2022/04/04 11:20:13;;;;;;;24.65;5.05;;;10.60;68.00;;;;;;5074833;28;20040;-91
2022/04/04 11:22:45;;;;;;;25.20;4.90;;;9.70;68.80;;;;;;5073344;28;20070;-90
2022/04/04 11:25:17;;;;;;;38.28;5.85;;;9.50;69.80;;;;;;5072882;28;20063;-89
2022/04/04 11:27:48;;;;;;;17.23;5.03;;;10.00;72.10;;;;;;5074363;28;20045;-92
2022/04/04 11:30:17;;;;;;;11.20;4.88;;;10.60;69.50;;;;;;5073664;28;20048;-88
2022/04/04 11:32:49;;;;;;;12.25;4.45;;;10.20;68.70;;;;;;5074493;28;20049;-90
2022/04/04 11:35:20;;;;;;;6.03;4.82;;;9.80;69.30;;;;;;5073385;28;20455;-90
2022/04/04 11:37:54;;;;;;;4.47;4.05;;;10.10;70.40;;;;;;5074024;28;20044;-91
2022/04/04 11:40:25;;;;;;;5.57;4.15;;;10.70;69.90;;;;;;5073114;28;20097;-90
2022/04/04 11:42:52;;;;;;;8.27;4.20;;;11.40;68.60;;;;;;5073195;28;20550;-91
2022/04/04 11:45:25;;;;;;;8.98;4.32;;;11.20;66.80;;;;;;5073994;28;20484;-89
2022/04/04 11:47:57;;;;;;;4.97;4.33;;;10.50;67.50;;;;;;5075957;28;20484;-91
2022/04/04 11:50:28;;;;;;;5.70;4.38;;;9.90;69.00;;;;;;5072636;28;20050;-90
2022/04/04 11:52:59;;;;;;;5.60;4.60;;;9.70;71.10;;;;;;5072730;28;20095;-90
2022/04/04 11:55:27;;;;;;;10.13;4.80;;;9.90;71.70;;;;;;5072890;28;20114;-89
2022/04/04 11:58:00;;;;;;;6.95;4.35;;;10.00;71.40;;;;;;5073989;28;20398;-89
2022/04/04 12:00:31;;;;;;;6.60;4.83;;;10.00;69.60;;;;;;5072582;28;20071;-92
2022/04/04 12:03:10;;;;;;;6.30;5.10;;;9.50;70.30;;;;;;5072643;28;20559;-89
2022/04/04 12:05:39;;;;;;;11.93;5.47;;;9.20;71.60;;;;;;5072551;28;20090;-89
2022/04/04 12:08:06;;;;;;;6.30;4.60;;;8.80;73.60;;;;;;5072947;28;20060;-92
2022/04/04 12:10:36;;;;;;;6.93;4.80;;;9.00;73.30;;;;;;5106341;28;20135;-90
2022/04/04 12:13:13;;;;;;;5.03;4.63;;;8.70;71.80;;;;;;5072921;28;20056;-92
2022/04/04 12:15:45;;;;;;;6.03;4.55;;;8.30;72.50;;;;;;5073714;28;20050;-93
2022/04/04 12:18:23;;;;;;;6.68;5.00;;;7.70;73.40;;;;;;5106647;28;20131;-92
2022/04/04 12:20:52;;;;;;;5.00;4.60;;;7.50;74.80;;;;;;5073548;28;20143;-92
2022/04/04 12:26:16;;;;;;;5.07;4.07;;;7.50;75.10;;;;;;5073336;28;20040;-93
2022/04/04 12:28:49;;;;;;;7.18;4.32;;;7.60;76.10;;;;;;5072764;28;20075;-93
2022/04/04 12:31:18;;;;;;;4.88;4.38;;;7.60;76.20;;;;;;5074199;28;20056;-92
2022/04/04 12:33:52;;;;;;;6.03;4.65;;;7.60;75.90;;;;;;5074076;28;20045;-92
2022/04/04 12:36:31;;;;;;;5.60;4.22;;;7.60;77.10;;;;;;5072165;28;20478;-90
2022/04/04 12:38:58;;;;;;;5.88;4.18;;;7.70;75.50;;;;;;5074170;28;20488;-89
2022/04/04 12:41:26;;;;;;;16.67;4.75;;;7.60;75.70;;;;;;5072385;28;20052;-88
2022/04/04 12:44:04;;;;;;;5.78;4.13;;;7.40;76.70;;;;;;5072483;28;20098;-90
2022/04/04 12:46:33;;;;;;;10.95;4.88;;;7.70;77.10;;;;;;5071712;28;20056;-89
2022/04/04 12:49:14;;;;;;;7.78;4.47;;;7.90;76.60;;;;;;5072675;28;20048;-92
2022/04/04 12:51:52;;;;;;;4.65;4.25;;;7.70;75.70;;;;;;5072437;28;20084;-89
2022/04/04 12:54:28;;;;;;;6.35;4.63;;;7.40;76.40;;;;;;5071758;28;20046;-91
2022/04/04 12:56:55;;;;;;;4.40;4.03;;;7.60;78.40;;;;;;5073127;28;20075;-91
2022/04/04 12:59:25;;;;;;;11.98;4.55;;;7.40;75.80;;;;;;5072345;28;20132;-90
2022/04/04 13:02:05;;;;;;;4.60;4.20;;;7.30;76.40;;;;;;5073149;28;20519;-90
2022/04/04 13:04:34;;;;;;;4.88;4.47;;;7.40;78.70;;;;;;5071543;28;20106;-89
2022/04/04 13:07:19;;;;;;;4.60;4.20;;;7.70;77.40;;;;;;5072883;28;20051;-89
2022/04/04 13:09:54;;;;;;;12.75;4.45;;;7.70;77.40;;;;;;5072076;28;20045;-92